sensor_id;sensor_type;location;lat;lon;timestamp;P1;durP1;ratioP1;P2;durP2;ratioP2
41502;SDS011;27237;42.554;22.966;2022-08-04T00:00:41;8.15;;;2.72;;
41502;SDS011;27237;42.554;22.966;2022-08-04T00:03:18;4.57;;;2.40;;
41502;SDS011;27237;42.554;22.966;2022-08-04T00:06:03;5.88;;;2.60;;
41502;SDS011;27237;42.554;22.966;2022-08-04T00:08:56;3.92;;;2.60;;
41502;SDS011;27237;42.554;22.966;2022-08-04T00:11:29;4.90;;;2.53;;
41502;SDS011;27237;42.554;22.966;2022-08-04T00:14:05;6.10;;;2.78;;
41502;SDS011;27237;42.554;22.966;2022-08-04T00:16:37;6.53;;;2.97;;
41502;SDS011;27237;42.554;22.966;2022-08-04T00:21:41;9.27;;;3.10;;
41502;SDS011;27237;42.554;22.966;2022-08-04T00:24:15;11.05;;;3.03;;
41502;SDS011;27237;42.554;22.966;2022-08-04T00:26:42;8.20;;;2.80;;
41502;SDS011;27237;42.554;22.966;2022-08-04T00:29:08;6.28;;;2.55;;
41502;SDS011;27237;42.554;22.966;2022-08-04T00:31:34;6.65;;;2.67;;
41502;SDS011;27237;42.554;22.966;2022-08-04T00:34:00;3.90;;;2.58;;
41502;SDS011;27237;42.554;22.966;2022-08-04T00:36:27;4.40;;;2.55;;
41502;SDS011;27237;42.554;22.966;2022-08-04T00:38:53;4.78;;;2.38;;
41502;SDS011;27237;42.554;22.966;2022-08-04T00:41:31;6.72;;;3.10;;
41502;SDS011;27237;42.554;22.966;2022-08-04T00:49:38;6.22;;;2.60;;
41502;SDS011;27237;42.554;22.966;2022-08-04T00:55:04;5.22;;;2.15;;
41502;SDS011;27237;42.554;22.966;2022-08-04T01:00:15;5.30;;;2.38;;
41502;SDS011;27237;42.554;22.966;2022-08-04T01:16:19;2.47;;;2.17;;
41502;SDS011;27237;42.554;22.966;2022-08-04T01:26:38;5.72;;;2.75;;
41502;SDS011;27237;42.554;22.966;2022-08-04T01:29:12;5.53;;;2.40;;
41502;SDS011;27237;42.554;22.966;2022-08-04T01:31:47;3.42;;;2.22;;
41502;SDS011;27237;42.554;22.966;2022-08-04T01:34:29;2.38;;;1.88;;
41502;SDS011;27237;42.554;22.966;2022-08-04T01:37:17;4.68;;;2.90;;
41502;SDS011;27237;42.554;22.966;2022-08-04T01:40:05;8.80;;;2.83;;
41502;SDS011;27237;42.554;22.966;2022-08-04T01:42:32;4.80;;;2.42;;
41502;SDS011;27237;42.554;22.966;2022-08-04T01:45:00;3.92;;;2.50;;
41502;SDS011;27237;42.554;22.966;2022-08-04T01:47:29;5.60;;;2.42;;
41502;SDS011;27237;42.554;22.966;2022-08-04T01:49:58;8.55;;;2.28;;
41502;SDS011;27237;42.554;22.966;2022-08-04T01:52:30;9.55;;;2.72;;
41502;SDS011;27237;42.554;22.966;2022-08-04T01:54:56;4.22;;;2.22;;
41502;SDS011;27237;42.554;22.966;2022-08-04T01:57:21;5.43;;;2.85;;
41502;SDS011;27237;42.554;22.966;2022-08-04T01:59:47;8.60;;;2.70;;
41502;SDS011;27237;42.554;22.966;2022-08-04T02:02:17;13.13;;;2.30;;
41502;SDS011;27237;42.554;22.966;2022-08-04T02:04:46;2.97;;;2.10;;
41502;SDS011;27237;42.554;22.966;2022-08-04T02:18:15;4.03;;;2.50;;
41502;SDS011;27237;42.554;22.966;2022-08-04T02:20:48;7.07;;;2.95;;
41502;SDS011;27237;42.554;22.966;2022-08-04T02:26:01;11.00;;;2.88;;
41502;SDS011;27237;42.554;22.966;2022-08-04T02:33:39;6.38;;;2.88;;
41502;SDS011;27237;42.554;22.966;2022-08-04T02:36:12;9.43;;;3.05;;
41502;SDS011;27237;42.554;22.966;2022-08-04T02:41:39;3.17;;;2.67;;
41502;SDS011;27237;42.554;22.966;2022-08-04T02:44:06;12.93;;;3.35;;
41502;SDS011;27237;42.554;22.966;2022-08-04T02:46:34;6.72;;;2.90;;
41502;SDS011;27237;42.554;22.966;2022-08-04T02:49:07;5.32;;;2.47;;
41502;SDS011;27237;42.554;22.966;2022-08-04T02:51:39;3.88;;;2.55;;
41502;SDS011;27237;42.554;22.966;2022-08-04T02:54:06;6.20;;;2.72;;
41502;SDS011;27237;42.554;22.966;2022-08-04T02:56:33;12.88;;;2.80;;
41502;SDS011;27237;42.554;22.966;2022-08-04T02:59:01;10.38;;;3.17;;
41502;SDS011;27237;42.554;22.966;2022-08-04T03:01:31;4.57;;;2.50;;
41502;SDS011;27237;42.554;22.966;2022-08-04T03:21:14;15.50;;;3.97;;
41502;SDS011;27237;42.554;22.966;2022-08-04T03:42:33;8.20;;;4.15;;
41502;SDS011;27237;42.554;22.966;2022-08-04T03:45:28;17.58;;;4.10;;
41502;SDS011;27237;42.554;22.966;2022-08-04T03:48:08;10.45;;;4.07;;
41502;SDS011;27237;42.554;22.966;2022-08-04T03:51:08;6.57;;;2.97;;
41502;SDS011;27237;42.554;22.966;2022-08-04T03:54:29;12.93;;;3.63;;
41502;SDS011;27237;42.554;22.966;2022-08-04T03:59:48;9.52;;;4.32;;
41502;SDS011;27237;42.554;22.966;2022-08-04T04:02:37;6.60;;;3.30;;
41502;SDS011;27237;42.554;22.966;2022-08-04T04:05:22;18.88;;;4.50;;
41502;SDS011;27237;42.554;22.966;2022-08-04T04:18:51;9.80;;;3.60;;
41502;SDS011;27237;42.554;22.966;2022-08-04T04:40:02;32.45;;;5.15;;
41502;SDS011;27237;42.554;22.966;2022-08-04T04:53:29;23.42;;;4.28;;
41502;SDS011;27237;42.554;22.966;2022-08-04T04:56:04;11.75;;;4.15;;
41502;SDS011;27237;42.554;22.966;2022-08-04T04:58:37;14.10;;;3.72;;
41502;SDS011;27237;42.554;22.966;2022-08-04T05:03:53;14.27;;;4.28;;
41502;SDS011;27237;42.554;22.966;2022-08-04T05:14:54;21.27;;;4.70;;
41502;SDS011;27237;42.554;22.966;2022-08-04T05:19:54;11.88;;;5.15;;
41502;SDS011;27237;42.554;22.966;2022-08-04T05:23:07;10.95;;;4.10;;
41502;SDS011;27237;42.554;22.966;2022-08-04T05:27:55;23.83;;;4.32;;
41502;SDS011;27237;42.554;22.966;2022-08-04T05:30:27;12.48;;;4.30;;
41502;SDS011;27237;42.554;22.966;2022-08-04T05:33:07;10.25;;;4.65;;
41502;SDS011;27237;42.554;22.966;2022-08-04T05:35:36;9.48;;;4.30;;
41502;SDS011;27237;42.554;22.966;2022-08-04T05:38:08;11.50;;;4.40;;
41502;SDS011;27237;42.554;22.966;2022-08-04T05:43:03;11.50;;;3.63;;
41502;SDS011;27237;42.554;22.966;2022-08-04T05:45:31;13.55;;;3.40;;
41502;SDS011;27237;42.554;22.966;2022-08-04T05:47:59;9.80;;;3.55;;
41502;SDS011;27237;42.554;22.966;2022-08-04T05:50:26;11.90;;;2.85;;
41502;SDS011;27237;42.554;22.966;2022-08-04T05:52:52;5.82;;;3.22;;
41502;SDS011;27237;42.554;22.966;2022-08-04T05:55:19;4.38;;;3.00;;
41502;SDS011;27237;42.554;22.966;2022-08-04T05:57:46;4.53;;;3.28;;
41502;SDS011;27237;42.554;22.966;2022-08-04T06:00:13;13.15;;;3.65;;
41502;SDS011;27237;42.554;22.966;2022-08-04T06:02:41;10.98;;;3.75;;
41502;SDS011;27237;42.554;22.966;2022-08-04T06:05:10;5.50;;;3.50;;
41502;SDS011;27237;42.554;22.966;2022-08-04T06:07:38;12.82;;;4.05;;
41502;SDS011;27237;42.554;22.966;2022-08-04T06:10:04;6.88;;;3.58;;
41502;SDS011;27237;42.554;22.966;2022-08-04T06:13:05;10.77;;;4.22;;
41502;SDS011;27237;42.554;22.966;2022-08-04T06:15:25;8.07;;;3.70;;
41502;SDS011;27237;42.554;22.966;2022-08-04T06:17:56;10.02;;;3.25;;
41502;SDS011;27237;42.554;22.966;2022-08-04T06:20:26;8.85;;;3.00;;
41502;SDS011;27237;42.554;22.966;2022-08-04T06:22:55;6.53;;;3.15;;
41502;SDS011;27237;42.554;22.966;2022-08-04T06:25:25;24.60;;;3.40;;
41502;SDS011;27237;42.554;22.966;2022-08-04T06:27:55;7.25;;;3.80;;
41502;SDS011;27237;42.554;22.966;2022-08-04T06:30:22;7.95;;;3.08;;
41502;SDS011;27237;42.554;22.966;2022-08-04T06:32:51;9.75;;;3.13;;
41502;SDS011;27237;42.554;22.966;2022-08-04T06:35:22;8.93;;;2.88;;
41502;SDS011;27237;42.554;22.966;2022-08-04T06:37:50;23.25;;;3.42;;
41502;SDS011;27237;42.554;22.966;2022-08-04T06:40:18;4.38;;;2.28;;
41502;SDS011;27237;42.554;22.966;2022-08-04T06:42:45;16.92;;;3.17;;
41502;SDS011;27237;42.554;22.966;2022-08-04T06:45:13;12.60;;;2.53;;
41502;SDS011;27237;42.554;22.966;2022-08-04T06:47:40;6.25;;;2.75;;
41502;SDS011;27237;42.554;22.966;2022-08-04T06:50:09;12.10;;;2.97;;
41502;SDS011;27237;42.554;22.966;2022-08-04T06:52:36;18.63;;;3.25;;
41502;SDS011;27237;42.554;22.966;2022-08-04T06:55:03;10.52;;;2.60;;
41502;SDS011;27237;42.554;22.966;2022-08-04T06:57:31;16.83;;;4.38;;
41502;SDS011;27237;42.554;22.966;2022-08-04T07:00:04;14.80;;;2.55;;
41502;SDS011;27237;42.554;22.966;2022-08-04T07:02:49;13.27;;;2.67;;
41502;SDS011;27237;42.554;22.966;2022-08-04T07:05:16;16.05;;;3.60;;
41502;SDS011;27237;42.554;22.966;2022-08-04T07:07:43;10.07;;;3.40;;
41502;SDS011;27237;42.554;22.966;2022-08-04T07:10:09;16.67;;;3.13;;
41502;SDS011;27237;42.554;22.966;2022-08-04T07:12:36;17.27;;;4.97;;
41502;SDS011;27237;42.554;22.966;2022-08-04T07:15:03;14.52;;;3.42;;
41502;SDS011;27237;42.554;22.966;2022-08-04T07:17:30;13.38;;;5.30;;
41502;SDS011;27237;42.554;22.966;2022-08-04T07:19:56;8.85;;;3.50;;
41502;SDS011;27237;42.554;22.966;2022-08-04T07:22:23;18.63;;;4.15;;
41502;SDS011;27237;42.554;22.966;2022-08-04T07:24:53;8.95;;;2.78;;
41502;SDS011;27237;42.554;22.966;2022-08-04T07:27:20;5.03;;;2.20;;
41502;SDS011;27237;42.554;22.966;2022-08-04T07:29:45;10.82;;;3.03;;
41502;SDS011;27237;42.554;22.966;2022-08-04T07:32:12;9.02;;;3.60;;
41502;SDS011;27237;42.554;22.966;2022-08-04T07:34:38;8.85;;;2.00;;
41502;SDS011;27237;42.554;22.966;2022-08-04T07:37:05;4.55;;;2.60;;
41502;SDS011;27237;42.554;22.966;2022-08-04T07:39:31;9.77;;;2.60;;
41502;SDS011;27237;42.554;22.966;2022-08-04T07:41:59;9.43;;;2.35;;
41502;SDS011;27237;42.554;22.966;2022-08-04T07:44:31;8.90;;;2.60;;
41502;SDS011;27237;42.554;22.966;2022-08-04T07:46:58;5.55;;;2.53;;
41502;SDS011;27237;42.554;22.966;2022-08-04T07:49:26;9.57;;;2.65;;
41502;SDS011;27237;42.554;22.966;2022-08-04T07:51:52;7.07;;;3.08;;
41502;SDS011;27237;42.554;22.966;2022-08-04T07:54:18;9.68;;;2.63;;
41502;SDS011;27237;42.554;22.966;2022-08-04T07:56:44;9.02;;;2.30;;
41502;SDS011;27237;42.554;22.966;2022-08-04T07:59:13;10.20;;;2.25;;
41502;SDS011;27237;42.554;22.966;2022-08-04T08:01:38;10.70;;;2.00;;
41502;SDS011;27237;42.554;22.966;2022-08-04T08:04:05;8.32;;;2.85;;
41502;SDS011;27237;42.554;22.966;2022-08-04T08:06:34;8.27;;;2.13;;
41502;SDS011;27237;42.554;22.966;2022-08-04T08:09:11;13.45;;;3.55;;
41502;SDS011;27237;42.554;22.966;2022-08-04T08:11:38;8.77;;;5.10;;
41502;SDS011;27237;42.554;22.966;2022-08-04T08:14:05;13.60;;;2.65;;
41502;SDS011;27237;42.554;22.966;2022-08-04T08:16:33;6.10;;;1.85;;
41502;SDS011;27237;42.554;22.966;2022-08-04T08:18:59;5.30;;;2.08;;
41502;SDS011;27237;42.554;22.966;2022-08-04T08:21:25;7.95;;;1.90;;
41502;SDS011;27237;42.554;22.966;2022-08-04T08:23:51;3.85;;;2.58;;
41502;SDS011;27237;42.554;22.966;2022-08-04T08:26:16;3.83;;;1.92;;
41502;SDS011;27237;42.554;22.966;2022-08-04T08:28:42;6.57;;;2.13;;
41502;SDS011;27237;42.554;22.966;2022-08-04T08:31:08;15.00;;;6.50;;
41502;SDS011;27237;42.554;22.966;2022-08-04T08:33:34;16.02;;;9.90;;
41502;SDS011;27237;42.554;22.966;2022-08-04T08:38:36;9.38;;;5.55;;
41502;SDS011;27237;42.554;22.966;2022-08-04T08:49:49;9.15;;;1.15;;
41502;SDS011;27237;42.554;22.966;2022-08-04T08:52:47;9.82;;;2.30;;
41502;SDS011;27237;42.554;22.966;2022-08-04T08:58:41;5.00;;;1.27;;
41502;SDS011;27237;42.554;22.966;2022-08-04T09:04:07;1.77;;;1.27;;
41502;SDS011;27237;42.554;22.966;2022-08-04T09:12:50;6.88;;;4.28;;
41502;SDS011;27237;42.554;22.966;2022-08-04T09:17:51;4.60;;;1.80;;
41502;SDS011;27237;42.554;22.966;2022-08-04T09:20:59;6.85;;;1.55;;
41502;SDS011;27237;42.554;22.966;2022-08-04T09:28:26;2.15;;;1.35;;
41502;SDS011;27237;42.554;22.966;2022-08-04T09:31:00;4.28;;;1.15;;
41502;SDS011;27237;42.554;22.966;2022-08-04T09:36:03;5.78;;;1.45;;
41502;SDS011;27237;42.554;22.966;2022-08-04T09:44:27;4.90;;;1.30;;
41502;SDS011;27237;42.554;22.966;2022-08-04T09:52:26;3.78;;;1.45;;
41502;SDS011;27237;42.554;22.966;2022-08-04T09:55:11;0.82;;;0.77;;
41502;SDS011;27237;42.554;22.966;2022-08-04T10:01:12;6.07;;;1.00;;
41502;SDS011;27237;42.554;22.966;2022-08-04T10:03:42;1.63;;;0.70;;
41502;SDS011;27237;42.554;22.966;2022-08-04T10:14:51;4.05;;;1.08;;
41502;SDS011;27237;42.554;22.966;2022-08-04T10:20:10;10.65;;;0.95;;
41502;SDS011;27237;42.554;22.966;2022-08-04T10:22:57;2.97;;;0.73;;
41502;SDS011;27237;42.554;22.966;2022-08-04T10:28:19;4.60;;;0.63;;
41502;SDS011;27237;42.554;22.966;2022-08-04T10:31:00;5.28;;;0.98;;
41502;SDS011;27237;42.554;22.966;2022-08-04T10:33:32;2.53;;;0.88;;
41502;SDS011;27237;42.554;22.966;2022-08-04T10:36:07;4.45;;;0.73;;
41502;SDS011;27237;42.554;22.966;2022-08-04T10:38:41;12.32;;;2.40;;
41502;SDS011;27237;42.554;22.966;2022-08-04T10:41:26;6.63;;;2.00;;
41502;SDS011;27237;42.554;22.966;2022-08-04T10:46:56;8.35;;;1.83;;
41502;SDS011;27237;42.554;22.966;2022-08-04T10:49:36;7.10;;;1.98;;
41502;SDS011;27237;42.554;22.966;2022-08-04T10:57:47;9.15;;;0.88;;
41502;SDS011;27237;42.554;22.966;2022-08-04T11:00:20;9.55;;;1.30;;
41502;SDS011;27237;42.554;22.966;2022-08-04T11:02:54;9.88;;;2.50;;
41502;SDS011;27237;42.554;22.966;2022-08-04T11:08:04;9.77;;;3.47;;
41502;SDS011;27237;42.554;22.966;2022-08-04T11:10:39;7.03;;;1.05;;
41502;SDS011;27237;42.554;22.966;2022-08-04T11:13:10;6.50;;;4.25;;
41502;SDS011;27237;42.554;22.966;2022-08-04T11:15:40;7.53;;;2.10;;
41502;SDS011;27237;42.554;22.966;2022-08-04T11:18:22;2.15;;;1.10;;
41502;SDS011;27237;42.554;22.966;2022-08-04T11:21:00;3.97;;;1.45;;
41502;SDS011;27237;42.554;22.966;2022-08-04T11:23:34;4.38;;;1.30;;
41502;SDS011;27237;42.554;22.966;2022-08-04T11:31:38;2.33;;;1.95;;
41502;SDS011;27237;42.554;22.966;2022-08-04T11:41:56;4.00;;;1.98;;
41502;SDS011;27237;42.554;22.966;2022-08-04T11:44:28;6.00;;;1.27;;
41502;SDS011;27237;42.554;22.966;2022-08-04T11:50:12;8.68;;;1.27;;
41502;SDS011;27237;42.554;22.966;2022-08-04T11:52:44;6.55;;;1.20;;
41502;SDS011;27237;42.554;22.966;2022-08-04T11:55:12;7.40;;;1.40;;
41502;SDS011;27237;42.554;22.966;2022-08-04T11:57:40;4.68;;;1.42;;
41502;SDS011;27237;42.554;22.966;2022-08-04T12:00:08;3.08;;;1.33;;
41502;SDS011;27237;42.554;22.966;2022-08-04T12:05:54;2.20;;;1.23;;
41502;SDS011;27237;42.554;22.966;2022-08-04T12:11:23;5.07;;;1.20;;
41502;SDS011;27237;42.554;22.966;2022-08-04T12:16:58;5.40;;;1.27;;
41502;SDS011;27237;42.554;22.966;2022-08-04T12:22:02;6.95;;;1.48;;
41502;SDS011;27237;42.554;22.966;2022-08-04T12:24:32;4.35;;;1.33;;
41502;SDS011;27237;42.554;22.966;2022-08-04T12:27:19;3.22;;;0.93;;
41502;SDS011;27237;42.554;22.966;2022-08-04T12:29:48;5.68;;;1.45;;
41502;SDS011;27237;42.554;22.966;2022-08-04T12:32:24;6.28;;;1.08;;
41502;SDS011;27237;42.554;22.966;2022-08-04T12:37:37;10.25;;;1.60;;
41502;SDS011;27237;42.554;22.966;2022-08-04T12:40:22;5.47;;;1.55;;
41502;SDS011;27237;42.554;22.966;2022-08-04T12:45:52;3.47;;;1.25;;
41502;SDS011;27237;42.554;22.966;2022-08-04T12:48:24;5.18;;;1.33;;
41502;SDS011;27237;42.554;22.966;2022-08-04T12:50:52;3.50;;;1.73;;
41502;SDS011;27237;42.554;22.966;2022-08-04T12:53:31;5.50;;;1.42;;
41502;SDS011;27237;42.554;22.966;2022-08-04T12:55:59;7.80;;;1.30;;
41502;SDS011;27237;42.554;22.966;2022-08-04T12:58:27;9.88;;;4.25;;
41502;SDS011;27237;42.554;22.966;2022-08-04T13:00:59;25.70;;;10.65;;
41502;SDS011;27237;42.554;22.966;2022-08-04T13:03:28;9.73;;;4.80;;
41502;SDS011;27237;42.554;22.966;2022-08-04T13:06:00;2.95;;;1.95;;
41502;SDS011;27237;42.554;22.966;2022-08-04T13:08:27;2.47;;;1.58;;
41502;SDS011;27237;42.554;22.966;2022-08-04T13:10:52;11.48;;;4.75;;
41502;SDS011;27237;42.554;22.966;2022-08-04T13:13:26;6.43;;;1.90;;
41502;SDS011;27237;42.554;22.966;2022-08-04T13:15:57;6.93;;;1.30;;
41502;SDS011;27237;42.554;22.966;2022-08-04T13:18:30;7.22;;;1.67;;
41502;SDS011;27237;42.554;22.966;2022-08-04T13:21:17;5.72;;;1.73;;
41502;SDS011;27237;42.554;22.966;2022-08-04T13:23:45;9.15;;;1.92;;
41502;SDS011;27237;42.554;22.966;2022-08-04T13:26:13;7.78;;;2.05;;
41502;SDS011;27237;42.554;22.966;2022-08-04T13:28:40;12.38;;;2.17;;
41502;SDS011;27237;42.554;22.966;2022-08-04T13:31:17;6.53;;;1.85;;
41502;SDS011;27237;42.554;22.966;2022-08-04T13:33:45;11.65;;;1.88;;
41502;SDS011;27237;42.554;22.966;2022-08-04T13:36:14;8.57;;;2.08;;
41502;SDS011;27237;42.554;22.966;2022-08-04T13:38:48;6.30;;;1.52;;
41502;SDS011;27237;42.554;22.966;2022-08-04T13:41:17;5.28;;;1.60;;
41502;SDS011;27237;42.554;22.966;2022-08-04T13:43:47;4.75;;;1.65;;
41502;SDS011;27237;42.554;22.966;2022-08-04T13:46:18;4.97;;;1.38;;
41502;SDS011;27237;42.554;22.966;2022-08-04T13:48:47;5.70;;;1.25;;
41502;SDS011;27237;42.554;22.966;2022-08-04T13:51:15;2.63;;;1.73;;
41502;SDS011;27237;42.554;22.966;2022-08-04T13:53:43;3.42;;;1.75;;
41502;SDS011;27237;42.554;22.966;2022-08-04T13:56:09;10.38;;;2.00;;
41502;SDS011;27237;42.554;22.966;2022-08-04T13:58:40;11.50;;;1.85;;
41502;SDS011;27237;42.554;22.966;2022-08-04T14:01:12;5.68;;;1.50;;
41502;SDS011;27237;42.554;22.966;2022-08-04T14:09:16;2.83;;;1.30;;
41502;SDS011;27237;42.554;22.966;2022-08-04T14:11:53;6.70;;;1.50;;
41502;SDS011;27237;42.554;22.966;2022-08-04T14:19:23;6.60;;;2.08;;
41502;SDS011;27237;42.554;22.966;2022-08-04T14:21:48;4.93;;;1.70;;
41502;SDS011;27237;42.554;22.966;2022-08-04T14:24:24;7.57;;;2.13;;
41502;SDS011;27237;42.554;22.966;2022-08-04T14:26:51;5.47;;;1.60;;
41502;SDS011;27237;42.554;22.966;2022-08-04T14:29:22;8.90;;;2.13;;
41502;SDS011;27237;42.554;22.966;2022-08-04T14:31:48;8.25;;;1.83;;
41502;SDS011;27237;42.554;22.966;2022-08-04T14:34:24;3.78;;;1.48;;
41502;SDS011;27237;42.554;22.966;2022-08-04T14:36:51;12.40;;;2.17;;
41502;SDS011;27237;42.554;22.966;2022-08-04T14:39:17;8.73;;;1.90;;
41502;SDS011;27237;42.554;22.966;2022-08-04T14:41:59;8.10;;;1.45;;
41502;SDS011;27237;42.554;22.966;2022-08-04T14:44:25;4.97;;;1.80;;
41502;SDS011;27237;42.554;22.966;2022-08-04T14:46:51;13.02;;;2.50;;
41502;SDS011;27237;42.554;22.966;2022-08-04T14:49:17;4.63;;;1.55;;
41502;SDS011;27237;42.554;22.966;2022-08-04T14:51:45;9.15;;;1.65;;
41502;SDS011;27237;42.554;22.966;2022-08-04T14:54:28;2.42;;;1.65;;
41502;SDS011;27237;42.554;22.966;2022-08-04T14:57:03;2.22;;;1.45;;
41502;SDS011;27237;42.554;22.966;2022-08-04T14:59:40;3.30;;;1.90;;
41502;SDS011;27237;42.554;22.966;2022-08-04T15:02:10;9.70;;;2.03;;
41502;SDS011;27237;42.554;22.966;2022-08-04T15:04:37;3.17;;;1.55;;
41502;SDS011;27237;42.554;22.966;2022-08-04T15:07:04;4.45;;;1.20;;
41502;SDS011;27237;42.554;22.966;2022-08-04T15:09:30;7.03;;;1.60;;
41502;SDS011;27237;42.554;22.966;2022-08-04T15:11:56;2.95;;;1.80;;
41502;SDS011;27237;42.554;22.966;2022-08-04T15:14:22;3.88;;;1.52;;
41502;SDS011;27237;42.554;22.966;2022-08-04T15:16:48;10.43;;;1.67;;
41502;SDS011;27237;42.554;22.966;2022-08-04T15:19:13;8.35;;;1.50;;
41502;SDS011;27237;42.554;22.966;2022-08-04T15:21:41;10.15;;;2.00;;
41502;SDS011;27237;42.554;22.966;2022-08-04T15:24:06;7.78;;;1.88;;
41502;SDS011;27237;42.554;22.966;2022-08-04T15:26:40;4.10;;;1.67;;
41502;SDS011;27237;42.554;22.966;2022-08-04T15:31:37;2.33;;;1.48;;
41502;SDS011;27237;42.554;22.966;2022-08-04T15:34:05;2.95;;;1.50;;
41502;SDS011;27237;42.554;22.966;2022-08-04T15:41:59;5.43;;;1.73;;
41502;SDS011;27237;42.554;22.966;2022-08-04T15:44:29;6.60;;;1.80;;
41502;SDS011;27237;42.554;22.966;2022-08-04T15:47:14;6.53;;;2.05;;
41502;SDS011;27237;42.554;22.966;2022-08-04T15:49:39;3.83;;;1.42;;
41502;SDS011;27237;42.554;22.966;2022-08-04T15:52:08;4.65;;;1.73;;
41502;SDS011;27237;42.554;22.966;2022-08-04T15:54:36;4.15;;;2.03;;
41502;SDS011;27237;42.554;22.966;2022-08-04T15:57:03;4.30;;;2.00;;
41502;SDS011;27237;42.554;22.966;2022-08-04T16:02:38;5.80;;;2.70;;
41502;SDS011;27237;42.554;22.966;2022-08-04T16:12:55;9.93;;;2.65;;
41502;SDS011;27237;42.554;22.966;2022-08-04T16:20:52;5.70;;;1.90;;
41502;SDS011;27237;42.554;22.966;2022-08-04T16:26:13;9.73;;;2.25;;
41502;SDS011;27237;42.554;22.966;2022-08-04T16:28:39;5.25;;;1.60;;
41502;SDS011;27237;42.554;22.966;2022-08-04T16:31:07;3.10;;;1.60;;
41502;SDS011;27237;42.554;22.966;2022-08-04T16:33:34;8.65;;;1.90;;
41502;SDS011;27237;42.554;22.966;2022-08-04T16:36:01;9.55;;;1.90;;
41502;SDS011;27237;42.554;22.966;2022-08-04T16:38:27;6.07;;;1.77;;
41502;SDS011;27237;42.554;22.966;2022-08-04T16:40:56;5.88;;;2.00;;
41502;SDS011;27237;42.554;22.966;2022-08-04T16:43:30;6.88;;;1.85;;
41502;SDS011;27237;42.554;22.966;2022-08-04T16:45:56;3.35;;;1.40;;
41502;SDS011;27237;42.554;22.966;2022-08-04T16:48:27;8.02;;;2.10;;
41502;SDS011;27237;42.554;22.966;2022-08-04T16:51:04;8.70;;;1.80;;
41502;SDS011;27237;42.554;22.966;2022-08-04T16:53:34;2.78;;;1.95;;
41502;SDS011;27237;42.554;22.966;2022-08-04T16:56:05;5.22;;;1.65;;
41502;SDS011;27237;42.554;22.966;2022-08-04T16:58:33;7.35;;;1.65;;
41502;SDS011;27237;42.554;22.966;2022-08-04T17:01:09;4.90;;;1.60;;
41502;SDS011;27237;42.554;22.966;2022-08-04T17:03:37;2.72;;;1.45;;
41502;SDS011;27237;42.554;22.966;2022-08-04T17:06:03;2.42;;;1.52;;
41502;SDS011;27237;42.554;22.966;2022-08-04T17:08:32;6.07;;;2.20;;
41502;SDS011;27237;42.554;22.966;2022-08-04T17:10:59;3.95;;;1.70;;
41502;SDS011;27237;42.554;22.966;2022-08-04T17:13:25;3.78;;;2.00;;
41502;SDS011;27237;42.554;22.966;2022-08-04T17:16:00;3.63;;;1.55;;
41502;SDS011;27237;42.554;22.966;2022-08-04T17:18:31;10.77;;;1.53;;
41502;SDS011;27237;42.554;22.966;2022-08-04T17:21:09;14.38;;;2.33;;
41502;SDS011;27237;42.554;22.966;2022-08-04T17:23:38;4.30;;;2.15;;
41502;SDS011;27237;42.554;22.966;2022-08-04T17:26:09;14.95;;;2.15;;
41502;SDS011;27237;42.554;22.966;2022-08-04T17:28:39;2.40;;;1.80;;
41502;SDS011;27237;42.554;22.966;2022-08-04T17:31:07;5.63;;;2.40;;
41502;SDS011;27237;42.554;22.966;2022-08-04T17:33:34;10.00;;;2.10;;
41502;SDS011;27237;42.554;22.966;2022-08-04T17:36:02;6.22;;;1.60;;
41502;SDS011;27237;42.554;22.966;2022-08-04T17:38:33;3.25;;;1.90;;
41502;SDS011;27237;42.554;22.966;2022-08-04T17:41:00;7.13;;;1.70;;
41502;SDS011;27237;42.554;22.966;2022-08-04T17:46:20;6.95;;;2.25;;
41502;SDS011;27237;42.554;22.966;2022-08-04T17:51:23;3.50;;;1.60;;
41502;SDS011;27237;42.554;22.966;2022-08-04T17:53:57;4.50;;;1.52;;
41502;SDS011;27237;42.554;22.966;2022-08-04T17:56:30;5.95;;;1.60;;
41502;SDS011;27237;42.554;22.966;2022-08-04T17:59:16;2.30;;;1.48;;
41502;SDS011;27237;42.554;22.966;2022-08-04T18:12:24;5.25;;;1.63;;
41502;SDS011;27237;42.554;22.966;2022-08-04T18:15:06;4.00;;;2.10;;
41502;SDS011;27237;42.554;22.966;2022-08-04T18:17:38;6.28;;;1.50;;
41502;SDS011;27237;42.554;22.966;2022-08-04T18:20:15;5.25;;;1.90;;
41502;SDS011;27237;42.554;22.966;2022-08-04T18:22:46;4.88;;;1.90;;
41502;SDS011;27237;42.554;22.966;2022-08-04T18:25:14;5.88;;;1.60;;
41502;SDS011;27237;42.554;22.966;2022-08-04T18:27:51;3.20;;;1.50;;
41502;SDS011;27237;42.554;22.966;2022-08-04T18:30:23;3.40;;;1.48;;
41502;SDS011;27237;42.554;22.966;2022-08-04T18:32:51;8.38;;;1.73;;
41502;SDS011;27237;42.554;22.966;2022-08-04T18:35:19;5.70;;;1.45;;
41502;SDS011;27237;42.554;22.966;2022-08-04T18:37:45;2.25;;;1.60;;
41502;SDS011;27237;42.554;22.966;2022-08-04T18:40:11;2.47;;;1.98;;
41502;SDS011;27237;42.554;22.966;2022-08-04T18:42:37;1.83;;;1.65;;
41502;SDS011;27237;42.554;22.966;2022-08-04T18:45:03;3.20;;;2.33;;
41502;SDS011;27237;42.554;22.966;2022-08-04T18:47:29;2.28;;;1.80;;
41502;SDS011;27237;42.554;22.966;2022-08-04T18:49:55;8.95;;;2.25;;
41502;SDS011;27237;42.554;22.966;2022-08-04T18:52:21;12.60;;;2.22;;
41502;SDS011;27237;42.554;22.966;2022-08-04T18:54:47;7.78;;;2.03;;
41502;SDS011;27237;42.554;22.966;2022-08-04T18:57:19;13.63;;;2.80;;
41502;SDS011;27237;42.554;22.966;2022-08-04T18:59:45;10.63;;;2.47;;
41502;SDS011;27237;42.554;22.966;2022-08-04T19:02:11;8.82;;;2.55;;
41502;SDS011;27237;42.554;22.966;2022-08-04T19:04:37;5.30;;;1.85;;
41502;SDS011;27237;42.554;22.966;2022-08-04T19:07:03;6.40;;;2.78;;
41502;SDS011;27237;42.554;22.966;2022-08-04T19:09:29;14.80;;;2.53;;
41502;SDS011;27237;42.554;22.966;2022-08-04T19:11:55;9.38;;;2.33;;
41502;SDS011;27237;42.554;22.966;2022-08-04T19:14:21;6.13;;;3.40;;
41502;SDS011;27237;42.554;22.966;2022-08-04T19:16:46;10.52;;;2.88;;
41502;SDS011;27237;42.554;22.966;2022-08-04T19:19:12;3.95;;;2.50;;
41502;SDS011;27237;42.554;22.966;2022-08-04T19:21:39;10.13;;;2.17;;
41502;SDS011;27237;42.554;22.966;2022-08-04T19:24:05;9.13;;;2.90;;
41502;SDS011;27237;42.554;22.966;2022-08-04T19:26:31;9.18;;;2.97;;
41502;SDS011;27237;42.554;22.966;2022-08-04T19:28:57;4.63;;;2.33;;
41502;SDS011;27237;42.554;22.966;2022-08-04T19:31:22;9.52;;;2.88;;
41502;SDS011;27237;42.554;22.966;2022-08-04T19:33:48;10.20;;;3.22;;
41502;SDS011;27237;42.554;22.966;2022-08-04T19:36:13;5.78;;;2.65;;
41502;SDS011;27237;42.554;22.966;2022-08-04T19:38:39;7.82;;;3.20;;
41502;SDS011;27237;42.554;22.966;2022-08-04T19:41:05;6.18;;;3.00;;
41502;SDS011;27237;42.554;22.966;2022-08-04T19:43:31;7.35;;;3.17;;
41502;SDS011;27237;42.554;22.966;2022-08-04T19:45:57;13.57;;;3.80;;
41502;SDS011;27237;42.554;22.966;2022-08-04T19:48:23;10.27;;;3.65;;
41502;SDS011;27237;42.554;22.966;2022-08-04T19:50:48;8.40;;;2.85;;
41502;SDS011;27237;42.554;22.966;2022-08-04T19:53:14;7.90;;;3.75;;
41502;SDS011;27237;42.554;22.966;2022-08-04T19:55:40;12.60;;;2.95;;
41502;SDS011;27237;42.554;22.966;2022-08-04T19:58:06;6.55;;;3.03;;
41502;SDS011;27237;42.554;22.966;2022-08-04T20:00:32;15.35;;;3.85;;
41502;SDS011;27237;42.554;22.966;2022-08-04T20:02:58;6.65;;;2.97;;
41502;SDS011;27237;42.554;22.966;2022-08-04T20:05:24;12.63;;;4.10;;
41502;SDS011;27237;42.554;22.966;2022-08-04T20:07:50;17.40;;;4.47;;